Zedelgem, Belgium
Current Conditions -  °F | °C
As of 10:50 PM on Tuesday 25 Nov 2014 (Local Time) from EBOS Reporting Station
Few Clouds Few Clouds  
Wind Chill: 40°   Ceiling: Unl
Heat Index: 45°   Visibility: 6mi
Dew Point: 37°   Wind: 9mph
Humidity: 76%   Direction: 90°E
Pressure: 30.03"   Gusts: NA
Location:  51.14°N, 3.14°E
Report Text: EBOS 252150Z 09008KT 9999 FEW032 07/03 Q1017 NOSIG
Loading
Personal Weather Stations






























Interactive Weather Map New forecast layout! Learn more

10-Day Weather Forecast

Advertisements
Track Severe Weather on mobile